Time;durP1;ratioP1;P1;durP2;ratioP2;P2;SDS_P1;SDS_P2;PMS_P1;PMS_P2;Temp;Humidity;BMP_temperature;BMP_pressure;BME280_temperature;BME280_humidity;BME280_pressure;Samples;Min_cycle;Max_cycle;Signal;HPM_P1;HPM_P2
2023/04/30 07:22:50;;;;;;;12.50;11.20;;;;;;;-145.79;73.74;78657.75;5278650;28;20386;-71
2023/04/30 07:25:21;;;;;;;12.10;10.93;;;;;;;-145.79;73.41;78645.00;5279279;28;20028;-71
2023/04/30 07:27:54;;;;;;;12.43;10.75;;;;;;;-145.79;73.04;78645.00;5258125;28;20028;-71
2023/04/30 07:30:25;;;;;;;13.05;10.95;;;;;;;-145.79;73.18;78628.06;5263696;28;20052;-71
2023/04/30 07:32:57;;;;;;;15.02;12.60;;;;;;;-145.79;72.52;78608.97;5277935;28;20812;-72
2023/04/30 07:35:28;;;;;;;12.07;10.88;;;;;;;-145.79;72.29;78604.72;5278195;28;20369;-71
2023/04/30 07:37:59;;;;;;;11.43;10.32;;;;;;;-145.79;72.21;78583.53;5277894;28;20033;-71
2023/04/30 07:40:31;;;;;;;14.02;10.60;;;;;;;-145.79;71.72;78587.75;5275483;28;20065;-72
2023/04/30 07:43:03;;;;;;;11.75;10.52;;;;;;;-145.79;71.60;78566.56;5276572;28;20028;-72
2023/04/30 07:45:35;;;;;;;11.98;10.65;;;;;;;-145.79;71.97;78555.97;5274720;28;20037;-72
2023/04/30 07:48:06;;;;;;;12.60;10.80;;;;;;;-145.79;70.98;78558.09;5257348;28;20025;-72
2023/04/30 07:50:38;;;;;;;12.65;10.93;;;;;;;-145.79;70.67;78560.19;5256695;28;20041;-72
2023/04/30 07:53:09;;;;;;;11.43;10.02;;;;;;;-145.79;70.70;78545.38;5256871;28;20026;-72
2023/04/30 07:55:41;;;;;;;11.50;10.30;;;;;;;-145.79;70.33;78530.53;5276122;28;20353;-71
2023/04/30 07:58:12;;;;;;;11.25;9.88;;;;;;;-145.79;69.83;78530.53;5263827;28;20427;-72
2023/04/30 08:00:43;;;;;;;11.77;10.55;;;;;;;-145.79;70.02;78517.81;5273017;28;20059;-72
2023/04/30 08:03:15;;;;;;;12.30;10.85;;;;;;;-145.79;69.65;78511.44;5275052;28;20032;-72
2023/04/30 08:05:46;;;;;;;10.77;9.68;;;;;;;-145.79;69.59;78496.59;5263292;28;20030;-71
2023/04/30 08:08:17;;;;;;;11.05;9.65;;;;;;;-145.79;68.73;78486.00;5274790;28;20025;-72
2023/04/30 08:10:49;;;;;;;11.48;10.27;;;;;;;-145.79;68.94;78471.16;5276733;28;20436;-72
2023/04/30 08:13:20;;;;;;;10.57;9.48;;;;;;;-145.79;67.98;78466.91;5277410;28;20023;-72
2023/04/30 08:15:51;;;;;;;11.18;10.07;;;;;;;-145.79;67.20;78456.31;5272623;28;20395;-70
2023/04/30 08:18:23;;;;;;;11.32;8.95;;;;;;;-145.79;66.78;78437.22;5277758;28;20017;-71
2023/04/30 08:20:54;;;;;;;9.93;8.80;;;;;;;-145.79;66.63;78426.63;5276133;28;20075;-71
2023/04/30 08:23:26;;;;;;;10.50;9.30;;;;;;;-145.79;65.37;78420.28;5276911;28;20021;-71
2023/04/30 08:25:57;;;;;;;10.18;9.18;;;;;;;-145.79;65.09;78418.16;5272809;28;20097;-71
2023/04/30 08:28:29;;;;;;;9.43;8.55;;;;;;;-145.79;63.85;78407.53;5276557;28;20021;-71
2023/04/30 08:31:00;;;;;;;9.38;7.80;;;;;;;-145.79;63.76;78403.31;5276675;28;20025;-72
2023/04/30 08:33:32;;;;;;;9.98;8.90;;;;;;;-145.79;64.00;78403.31;5267315;28;20048;-72
2023/04/30 08:36:03;;;;;;;11.10;10.00;;;;;;;-145.79;64.60;78382.09;5263411;28;20025;-72
2023/04/30 08:38:35;;;;;;;10.82;9.73;;;;;;;-145.79;63.96;78373.63;5260412;28;20128;-71
2023/04/30 08:41:13;;;;;;;9.15;8.23;;;;;;;-145.79;64.17;78360.91;5263072;28;20028;-72
2023/04/30 08:43:44;;;;;;;10.65;9.35;;;;;;;-145.79;62.41;78356.66;5258720;28;20078;-72
2023/04/30 08:46:17;;;;;;;11.00;8.45;;;;;;;-145.79;62.96;78343.94;5242545;28;20408;-72
2023/04/30 08:48:48;;;;;;;12.35;9.85;;;;;;;-145.79;63.04;78329.09;5260705;28;20029;-71
2023/04/30 08:51:20;;;;;;;9.90;8.32;;;;;;;-145.79;61.77;78322.75;5262974;28;20025;-72
2023/04/30 08:53:54;;;;;;;10.77;8.98;;;;;;;-145.79;61.37;78301.53;5260002;28;20029;-72
2023/04/30 08:56:25;;;;;;;8.75;7.85;;;;;;;-145.79;60.48;78297.31;5253536;28;20104;-70
2023/04/30 08:58:56;;;;;;;9.15;8.02;;;;;;;-145.79;60.57;78290.94;5261907;28;20092;-73
2023/04/30 09:01:29;;;;;;;22.83;20.55;;;;;;;-145.79;61.62;78267.63;5260450;28;20029;-72
2023/04/30 09:04:03;;;;;;;10.50;9.43;;;;;;;-145.79;61.63;78259.13;5260421;28;20029;-71
2023/04/30 09:06:34;;;;;;;8.18;7.38;;;;;;;-145.79;60.18;78242.19;5260803;28;20365;-71
2023/04/30 09:09:11;;;;;;;9.45;8.55;;;;;;;-145.79;60.51;78242.19;5260251;28;20032;-72
2023/04/30 09:11:43;;;;;;;10.52;8.20;;;;;;;-145.79;60.31;78231.56;5256515;28;20039;-72
2023/04/30 09:14:23;;;;;;;10.57;8.57;;;;;;;-145.79;59.86;78216.72;5259940;28;20025;-72
2023/04/30 09:16:55;;;;;;;8.75;7.95;;;;;;;-145.79;59.17;78204.00;5258715;28;20631;-71
2023/04/30 09:19:28;;;;;;;9.38;8.23;;;;;;;-145.79;60.22;78182.81;5258587;28;20091;-71
2023/04/30 09:22:18;;;;;;;9.68;8.73;;;;;;;-145.79;60.68;78174.34;5260838;28;20044;-71
2023/04/30 09:24:50;;;;;;;11.02;9.68;;;;;;;-145.79;59.33;78180.69;5263297;28;20059;-71
2023/04/30 09:27:22;;;;;;;9.85;7.88;;;;;;;-145.79;59.00;78184.94;5261414;28;20352;-71
2023/04/30 09:29:56;;;;;;;8.38;7.35;;;;;;;-145.79;58.24;78170.09;5247705;28;20021;-72
2023/04/30 09:32:27;;;;;;;8.68;7.82;;;;;;;-145.79;58.45;78170.09;5263588;28;20040;-71
2023/04/30 09:34:59;;;;;;;7.15;6.53;;;;;;;-145.79;56.49;78174.34;5262630;28;20423;-72
2023/04/30 09:37:37;;;;;;;9.02;8.13;;;;;;;-145.79;57.60;78170.09;5246564;28;20120;-72
2023/04/30 09:40:09;;;;;;;8.15;7.13;;;;;;;-145.79;56.40;78184.94;5251434;28;20039;-72
2023/04/30 09:42:59;;;;;;;10.23;8.57;;;;;;;-145.79;58.64;78191.28;5252604;28;20025;-72
2023/04/30 09:45:48;;;;;;;9.02;8.10;;;;;;;-145.79;59.64;78182.81;5259265;28;20064;-71
2023/04/30 09:48:21;;;;;;;34.97;30.50;;;;;;;-145.79;59.78;78167.97;5260714;28;20035;-71
2023/04/30 09:50:53;;;;;;;10.25;9.25;;;;;;;-145.79;59.31;78170.09;5260311;28;20024;-72
2023/04/30 09:53:24;;;;;;;15.93;13.13;;;;;;;-145.79;59.79;78157.38;5258829;28;20437;-72
2023/04/30 09:55:57;;;;;;;10.60;8.93;;;;;;;-145.79;59.92;78167.97;5257929;28;20195;-71
2023/04/30 09:58:34;;;;;;;9.05;8.25;;;;;;;-145.79;59.30;78153.13;5258889;28;20143;-72
2023/04/30 10:01:07;;;;;;;10.07;8.75;;;;;;;-145.79;59.29;78144.66;5256798;28;20036;-72
2023/04/30 10:03:44;;;;;;;9.32;8.43;;;;;;;-145.79;58.48;78151.00;5256850;28;20032;-72
2023/04/30 10:06:17;;;;;;;10.13;8.73;;;;;;;-145.79;58.54;78157.38;5257692;28;20148;-70
2023/04/30 10:08:56;;;;;;;8.90;8.10;;;;;;;-145.79;58.28;78153.13;5258833;28;20475;-71
2023/04/30 10:11:31;;;;;;;9.07;7.97;;;;;;;-145.79;58.85;78148.91;5259690;28;20027;-72
2023/04/30 10:14:08;;;;;;;8.93;8.02;;;;;;;-145.79;59.64;78153.13;5258968;28;20021;-71
2023/04/30 10:16:50;;;;;;;9.32;7.38;;;;;;;-145.79;58.95;78136.19;5260554;28;20021;-71
2023/04/30 10:19:23;;;;;;;10.32;8.65;;;;;;;-145.79;58.42;78140.41;5259456;28;20025;-70
2023/04/30 10:21:55;;;;;;;14.57;13.05;;;;;;;-145.79;57.99;78140.41;5251667;28;20144;-70
2023/04/30 10:24:27;;;;;;;24.77;21.00;;;;;;;-145.79;58.29;78123.44;5258115;28;20495;-72
2023/04/30 10:26:58;;;;;;;9.25;8.43;;;;;;;-145.79;58.32;78106.50;5260885;28;20021;-72
2023/04/30 10:29:30;;;;;;;8.65;7.75;;;;;;;-145.79;57.39;78089.53;5260315;28;20099;-72
2023/04/30 10:32:04;;;;;;;8.30;7.60;;;;;;;-145.79;57.12;78078.94;5253646;28;20033;-72
2023/04/30 10:34:41;;;;;;;9.02;7.95;;;;;;;-145.79;57.33;78049.25;5260333;28;20031;-72
2023/04/30 10:37:42;;;;;;;9.20;8.30;;;;;;;-145.79;56.27;78042.91;5258476;28;20468;-71
2023/04/30 10:40:14;;;;;;;8.88;7.60;;;;;;;-145.79;55.97;78036.53;5252712;28;20387;-72
2023/04/30 10:42:47;;;;;;;9.13;8.30;;;;;;;-145.79;55.87;78013.22;5257331;28;20037;-72
2023/04/30 10:45:33;;;;;;;8.40;7.60;;;;;;;-145.79;55.61;77992.00;5258064;28;20031;-71
2023/04/30 10:48:06;;;;;;;;;;;;;;;-145.79;55.58;77968.69;5258503;28;20021;-71
2023/04/30 10:50:45;;;;;;;8.18;7.38;;;;;;;-145.79;54.71;77958.09;5256762;28;19963;-71
2023/04/30 10:53:18;;;;;;;7.40;6.70;;;;;;;-145.79;53.85;77943.25;5252665;28;20021;-71
2023/04/30 10:55:56;;;;;;;6.85;5.93;;;;;;;-145.79;53.21;77915.69;5252071;28;20104;-71
2023/04/30 10:58:33;;;;;;;7.90;6.78;;;;;;;-145.79;51.68;77907.22;5253322;28;20469;-72
2023/04/30 11:01:10;;;;;;;8.52;7.63;;;;;;;-145.79;51.86;77892.38;5256141;28;20041;-71
2023/04/30 11:04:03;;;;;;;8.18;7.47;;;;;;;-145.79;51.55;77915.69;5255035;28;20028;-72
2023/04/30 11:06:53;;;;;;;6.68;6.07;;;;;;;-145.79;51.27;77881.78;5251710;28;20056;-72
2023/04/30 11:09:42;;;;;;;10.63;7.15;;;;;;;-145.79;50.58;77869.06;5253843;28;20033;-71
2023/04/30 11:12:18;;;;;;;7.68;6.82;;;;;;;-145.79;50.88;77866.94;5256675;28;20025;-71
2023/04/30 11:14:49;;;;;;;7.47;6.88;;;;;;;-145.79;50.39;77845.75;5260860;28;20515;-71
2023/04/30 11:17:23;;;;;;;6.95;6.25;;;;;;;-145.79;50.23;77841.50;5253868;28;20207;-71
2023/04/30 11:19:59;;;;;;;6.32;5.63;;;;;;;-145.79;49.81;77822.41;5256075;28;20109;-74
2023/04/30 11:22:34;;;;;;;6.72;5.97;;;;;;;-145.79;49.43;77801.22;5259695;28;20037;-74
2023/04/30 11:25:08;;;;;;;8.75;5.50;;;;;;;-145.79;49.24;77805.47;5258196;28;20021;-72
2023/04/30 11:27:45;;;;;;;6.00;5.50;;;;;;;-145.79;49.17;77782.16;5257619;28;20037;-71
2023/04/30 11:30:17;;;;;;;5.20;4.63;;;;;;;-145.79;47.88;77754.59;5260492;28;20040;-71
2023/04/30 11:32:48;;;;;;;6.18;4.70;;;;;;;-145.79;46.91;77754.59;5258181;28;20034;-71
2023/04/30 11:35:20;;;;;;;5.18;4.63;;;;;;;-145.79;46.91;77746.09;5255379;28;20363;-71
2023/04/30 11:37:54;;;;;;;5.55;4.45;;;;;;;-145.79;47.15;77729.16;5257174;28;20063;-71
2023/04/30 11:40:26;;;;;;;5.63;3.75;;;;;;;-145.79;47.10;77707.94;5256206;28;20079;-71
2023/04/30 11:42:57;;;;;;;5.55;4.72;;;;;;;-145.79;46.61;77720.66;5257278;28;20141;-72
2023/04/30 11:45:29;;;;;;;5.13;4.63;;;;;;;-145.79;47.08;77707.94;5255853;28;20388;-71
2023/04/30 11:48:09;;;;;;;5.13;4.57;;;;;;;-145.79;46.17;77684.63;5258797;28;20104;-72
2023/04/30 11:50:42;;;;;;;4.70;4.30;;;;;;;-145.79;46.97;77674.03;5260139;28;20477;-73
2023/04/30 11:53:16;;;;;;;5.43;4.78;;;;;;;-145.79;46.82;77671.91;5254242;28;20409;-73
2023/04/30 11:55:48;;;;;;;5.85;5.15;;;;;;;-145.79;45.62;77665.56;5259433;28;20473;-73
2023/04/30 11:58:19;;;;;;;5.70;4.57;;;;;;;-145.79;45.98;77644.34;5259637;28;20104;-73
2023/04/30 12:00:51;;;;;;;4.40;4.00;;;;;;;-145.79;45.82;77638.00;5257893;28;20029;-73
2023/04/30 12:03:23;;;;;;;5.25;4.20;;;;;;;-145.79;44.50;77629.53;5259075;28;20096;-72
2023/04/30 12:05:54;;;;;;;4.60;4.22;;;;;;;-145.79;44.19;77627.41;5259892;28;20442;-72
2023/04/30 12:08:26;;;;;;;4.05;3.65;;;;;;;-145.79;44.14;77610.44;5260824;28;20029;-72
2023/04/30 12:10:57;;;;;;;4.30;3.65;;;;;;;-145.79;44.28;77608.31;5260235;28;20032;-73
2023/04/30 12:13:30;;;;;;;5.05;4.35;;;;;;;-145.79;43.01;77608.31;5263136;28;20031;-71
2023/04/30 12:16:02;;;;;;;31.40;28.15;;;;;;;-145.79;43.45;77621.03;5262651;28;20033;-74
2023/04/30 12:18:33;;;;;;;6.00;4.18;;;;;;;-145.79;44.33;77585.00;5262560;28;20021;-74
2023/04/30 12:21:04;;;;;;;6.07;5.30;;;;;;;-145.79;44.35;77561.69;5263441;28;20044;-73
2023/04/30 12:23:36;;;;;;;4.65;3.95;;;;;;;-145.79;43.94;77578.66;5262583;28;20028;-73
2023/04/30 12:26:08;;;;;;;4.30;3.90;;;;;;;-145.79;43.98;77599.84;5262224;28;20049;-72
2023/04/30 12:28:39;;;;;;;4.68;4.00;;;;;;;-145.79;44.38;77618.91;5260663;28;20036;-73
2023/04/30 12:31:13;;;;;;;5.15;4.68;;;;;;;-145.79;44.14;77608.31;5260197;28;20115;-71
2023/04/30 12:33:55;;;;;;;5.15;4.65;;;;;;;-145.79;44.02;77580.75;5260441;28;20079;-72
2023/04/30 12:36:31;;;;;;;3.40;3.10;;;;;;;-145.79;43.95;77551.09;5258224;28;20032;-72
2023/04/30 12:39:09;;;;;;;3.65;3.20;;;;;;;-145.79;42.23;77544.72;5262288;28;20021;-72
2023/04/30 12:41:43;;;;;;;3.53;3.22;;;;;;;-145.79;42.56;77517.16;5259673;28;20036;-73
2023/04/30 12:44:23;;;;;;;2.97;2.70;;;;;;;-145.79;43.20;77519.28;5260560;28;20025;-73
2023/04/30 12:46:59;;;;;;;3.10;2.72;;;;;;;-145.79;42.64;77523.53;5263277;28;20012;-73
2023/04/30 12:49:33;;;;;;;4.30;3.20;;;;;;;-145.79;42.38;77504.47;5262477;28;20502;-72
2023/04/30 12:52:08;;;;;;;3.88;3.47;;;;;;;-145.79;41.80;77512.94;5254470;28;20021;-72
2023/04/30 12:54:39;;;;;;;3.20;3.00;;;;;;;-145.79;41.40;77500.22;5259682;28;20079;-74
2023/04/30 12:57:11;;;;;;;3.47;3.15;;;;;;;-145.79;43.19;77529.88;5261960;28;20040;-75
2023/04/30 12:59:52;;;;;;;3.95;2.40;;;;;;;-145.79;43.06;77540.50;5262027;28;20017;-74
2023/04/30 13:02:25;;;;;;;3.90;3.60;;;;;;;-145.79;42.42;77532.00;5262250;28;20033;-74
2023/04/30 13:04:57;;;;;;;5.47;3.28;;;;;;;-145.79;42.88;77525.66;5260263;28;20035;-74
2023/04/30 13:07:40;;;;;;;4.95;3.00;;;;;;;-145.79;42.69;77521.41;5258439;28;20012;-74
2023/04/30 13:10:12;;;;;;;3.22;2.92;;;;;;;-145.79;42.58;77500.22;5260217;28;20016;-72
2023/04/30 13:12:43;;;;;;;4.57;3.67;;;;;;;-145.79;42.19;77472.66;5260342;28;20385;-73
2023/04/30 13:15:15;;;;;;;4.00;3.60;;;;;;;-145.79;41.85;77476.91;5262345;28;20434;-74
2023/04/30 13:17:46;;;;;;;4.35;3.30;;;;;;;-145.79;41.92;77500.22;5262840;28;20108;-74
2023/04/30 13:20:17;;;;;;;4.10;3.22;;;;;;;-145.79;42.56;77489.63;5262101;28;20029;-74
2023/04/30 13:22:49;;;;;;;3.10;2.80;;;;;;;-145.79;42.07;77440.88;5262509;28;20119;-74
2023/04/30 13:25:21;;;;;;;4.00;3.60;;;;;;;-145.79;41.93;77404.84;5260460;28;20430;-74
2023/04/30 13:27:52;;;;;;;3.08;2.78;;;;;;;-145.79;41.70;77434.50;5261827;28;20021;-74
2023/04/30 13:30:24;;;;;;;3.88;2.70;;;;;;;-145.79;42.09;77440.88;5261675;28;20059;-73
2023/04/30 13:32:55;;;;;;;2.97;2.70;;;;;;;-145.79;42.22;77470.53;5260018;28;20136;-70
2023/04/30 13:35:27;;;;;;;4.22;3.28;;;;;;;-145.79;41.83;77455.69;5262084;28;20017;-70
2023/04/30 13:37:58;;;;;;;4.28;3.05;;;;;;;-145.79;42.06;77434.50;5262303;28;20016;-73
2023/04/30 13:40:30;;;;;;;3.33;3.03;;;;;;;-145.79;41.66;77413.31;5261216;28;20025;-73
2023/04/30 13:43:01;;;;;;;5.93;4.20;;;;;;;-145.79;41.43;77415.44;5254376;28;20035;-74
2023/04/30 13:45:33;;;;;;;4.43;4.05;;;;;;;-145.79;42.20;77430.25;5259610;28;20056;-75
2023/04/30 13:48:04;;;;;;;3.22;2.92;;;;;;;-145.79;42.27;77432.38;5257828;28;20021;-74
2023/04/30 13:50:36;;;;;;;4.25;2.88;;;;;;;-145.79;42.42;77390.00;5263197;28;20040;-75
2023/04/30 13:53:07;;;;;;;4.00;2.60;;;;;;;-145.79;41.01;77373.03;5261793;28;20028;-75
2023/04/30 13:55:38;;;;;;;3.38;3.08;;;;;;;-145.79;40.17;77349.72;5259635;28;20036;-82
2023/04/30 13:58:10;;;;;;;2.95;2.65;;;;;;;-145.79;40.61;77337.00;5262832;28;20021;-80
2023/04/30 14:00:41;;;;;;;2.88;2.50;;;;;;;-145.79;39.85;77334.88;5250905;28;20457;-80
2023/04/30 14:03:13;;;;;;;3.53;3.15;;;;;;;-145.79;40.36;77330.66;5242527;28;20025;-80
2023/04/30 14:05:45;;;;;;;4.22;3.08;;;;;;;-145.79;40.09;77328.53;5242334;28;20477;-80
2023/04/30 14:08:16;;;;;;;4.82;2.45;;;;;;;-145.79;40.59;77322.16;5241584;28;20362;-80
2023/04/30 14:10:57;;;;;;;4.10;3.10;;;;;;;-145.79;41.12;77300.97;5242163;28;20492;-80
2023/04/30 14:13:28;;;;;;;2.80;2.53;;;;;;;-145.79;40.06;77296.72;5242362;28;20112;-80
2023/04/30 14:16:00;;;;;;;3.50;3.20;;;;;;;-145.79;39.89;77279.78;5244061;28;20144;-80
2023/04/30 14:18:32;;;;;;;4.05;3.58;;;;;;;-145.79;39.46;77296.72;5244444;28;20022;-80
2023/04/30 14:21:03;;;;;;;5.43;2.35;;;;;;;-145.79;39.31;77298.84;5241956;28;20127;-80
2023/04/30 14:23:35;;;;;;;2.70;2.25;;;;;;;-145.79;39.12;77317.94;5241336;28;20033;-80
2023/04/30 14:26:06;;;;;;;2.38;2.17;;;;;;;-145.79;39.52;77317.94;5242141;28;20491;-80
2023/04/30 14:28:37;;;;;;;3.17;2.88;;;;;;;-145.79;38.72;77288.25;5240981;28;20025;-80
2023/04/30 14:31:09;;;;;;;2.80;2.58;;;;;;;-145.79;39.58;77275.53;5245346;28;20028;-80
2023/04/30 14:33:40;;;;;;;4.10;3.70;;;;;;;-145.79;39.56;77281.91;5262288;28;20481;-79
2023/04/30 14:36:12;;;;;;;4.43;3.30;;;;;;;-145.79;39.47;77275.53;5262131;28;20028;-80
2023/04/30 14:38:43;;;;;;;3.17;2.88;;;;;;;-145.79;40.06;77277.66;5263140;28;20032;-80
2023/04/30 14:41:15;;;;;;;3.30;2.95;;;;;;;-145.79;39.53;77303.09;5262388;28;20055;-80
2023/04/30 14:43:46;;;;;;;4.47;3.35;;;;;;;-145.79;39.87;77330.66;5261458;28;20040;-79
2023/04/30 14:46:18;;;;;;;5.85;4.20;;;;;;;-145.79;39.90;77326.41;5262028;28;20040;-80
2023/04/30 14:48:49;;;;;;;4.15;3.00;;;;;;;-145.79;39.97;77330.66;5262691;28;20468;-79
2023/04/30 14:51:21;;;;;;;3.80;2.97;;;;;;;-145.79;40.26;77326.41;5260984;28;20062;-80
2023/04/30 14:53:55;;;;;;;2.67;2.47;;;;;;;-145.79;40.13;77296.72;5262468;28;20029;-80
2023/04/30 14:56:26;;;;;;;4.82;2.90;;;;;;;-145.79;39.58;77300.97;5262824;28;20107;-80
2023/04/30 14:58:57;;;;;;;4.60;2.72;;;;;;;-145.79;39.90;77313.69;5261794;28;20110;-80
2023/04/30 15:01:32;;;;;;;5.15;2.63;;;;;;;-145.79;40.13;77328.53;5262797;28;20021;-80
2023/04/30 15:04:04;;;;;;;3.40;2.50;;;;;;;-145.79;39.78;77328.53;5262551;28;20726;-80
2023/04/30 15:06:35;;;;;;;3.30;2.80;;;;;;;-145.79;39.46;77337.00;5262840;28;20025;-80
2023/04/30 15:09:07;;;;;;;3.45;2.38;;;;;;;-145.79;39.83;77320.03;5262420;28;20024;-79
2023/04/30 15:11:38;;;;;;;4.88;2.92;;;;;;;-145.79;40.49;77292.50;5268851;28;20083;-79
2023/04/30 15:14:10;;;;;;;2.65;2.45;;;;;;;-145.79;39.84;77296.72;5268462;28;20452;-79
2023/04/30 15:16:42;;;;;;;2.88;2.42;;;;;;;-145.79;39.83;77309.44;5261627;28;20523;-77
2023/04/30 15:19:13;;;;;;;3.85;2.92;;;;;;;-145.79;39.73;77311.56;5243408;28;20033;-77
2023/04/30 15:21:44;;;;;;;2.85;2.55;;;;;;;-145.79;39.62;77330.66;5247576;28;20125;-78
2023/04/30 15:24:16;;;;;;;2.50;2.30;;;;;;;-145.79;40.12;77337.00;5246681;28;20100;-79
2023/04/30 15:26:50;;;;;;;2.45;2.20;;;;;;;-145.79;40.13;77317.94;5243047;28;20108;-79
2023/04/30 15:29:21;;;;;;;2.53;2.15;;;;;;;-145.79;40.08;77339.13;5241150;28;20101;-80
2023/04/30 15:31:53;;;;;;;2.60;2.40;;;;;;;-145.79;40.00;77349.72;5241264;28;20028;-79
2023/04/30 15:34:25;;;;;;;3.95;2.70;;;;;;;-145.79;40.90;77345.47;5241144;28;20030;-80
2023/04/30 15:36:57;;;;;;;3.58;2.60;;;;;;;-145.79;40.41;77345.47;5256748;28;20029;-78
2023/04/30 15:39:29;;;;;;;3.35;2.72;;;;;;;-145.79;40.18;77339.13;5261756;28;20529;-80
2023/04/30 15:42:00;;;;;;;2.53;2.22;;;;;;;-145.79;40.37;77330.66;5261218;28;20112;-79
2023/04/30 15:44:32;;;;;;;4.65;2.60;;;;;;;-145.79;40.49;77341.25;5265803;28;20104;-80
2023/04/30 15:47:03;;;;;;;7.03;6.32;;;;;;;-145.79;41.57;77339.13;5265023;28;20017;-79
2023/04/30 15:49:34;;;;;;;7.03;3.47;;;;;;;-145.79;40.38;77360.31;5247462;28;20029;-79
2023/04/30 15:52:06;;;;;;;4.30;2.63;;;;;;;-145.79;40.67;77351.84;5245333;28;20358;-79
2023/04/30 15:54:37;;;;;;;2.78;2.15;;;;;;;-145.79;40.74;77364.56;5244192;28;20021;-78
2023/04/30 15:57:08;;;;;;;3.72;2.78;;;;;;;-145.79;40.75;77362.44;5245368;28;20472;-79
2023/04/30 15:59:40;;;;;;;3.55;2.58;;;;;;;-145.79;40.58;77341.25;5255602;28;20091;-79
2023/04/30 16:02:11;;;;;;;3.20;2.05;;;;;;;-145.79;40.64;77322.16;5264426;28;20567;-80
2023/04/30 16:04:43;;;;;;;3.03;1.98;;;;;;;-145.79;39.54;77305.22;5265637;28;20024;-80
2023/04/30 16:07:14;;;;;;;2.33;2.03;;;;;;;-145.79;39.97;77317.94;5264482;28;20020;-79
2023/04/30 16:09:47;;;;;;;2.55;2.03;;;;;;;-145.79;40.87;77330.66;5265472;28;20028;-78
2023/04/30 16:12:19;;;;;;;3.03;1.90;;;;;;;-145.79;40.10;77332.75;5266065;28;20025;-80
2023/04/30 16:14:50;;;;;;;4.05;2.33;;;;;;;-145.79;40.39;77326.41;5265129;28;20028;-80
2023/04/30 16:17:23;;;;;;;2.97;2.08;;;;;;;-145.79;41.06;77334.88;5261977;28;20025;-80
2023/04/30 16:19:54;;;;;;;2.30;2.10;;;;;;;-145.79;40.68;77332.75;5265152;28;20029;-79
2023/04/30 16:22:26;;;;;;;3.42;2.63;;;;;;;-145.79;40.65;77330.66;5265194;28;20060;-80
2023/04/30 16:24:58;;;;;;;3.45;2.22;;;;;;;-145.79;40.92;77345.47;5265355;28;20128;-81
2023/04/30 16:27:29;;;;;;;3.65;2.53;;;;;;;-145.79;40.95;77343.38;5265638;28;20033;-81
2023/04/30 16:30:01;;;;;;;2.95;2.45;;;;;;;-145.79;40.90;77358.19;5264471;28;20500;-81
2023/04/30 16:32:32;;;;;;;2.72;2.47;;;;;;;-145.79;40.48;77343.38;5263322;28;20036;-79
2023/04/30 16:35:04;;;;;;;3.03;2.47;;;;;;;-145.79;40.32;77330.66;5260829;28;20468;-79
2023/04/30 16:37:36;;;;;;;3.90;2.90;;;;;;;-145.79;40.09;77309.44;5250994;28;20496;-76
2023/04/30 16:40:09;;;;;;;2.63;1.90;;;;;;;-145.79;39.84;77296.72;5251722;28;20185;-76
2023/04/30 16:42:40;;;;;;;2.95;2.03;;;;;;;-145.79;40.56;77296.72;5262718;28;20502;-77
2023/04/30 16:45:11;;;;;;;3.08;1.92;;;;;;;-145.79;40.47;77305.22;5265041;28;20068;-77
2023/04/30 16:47:43;;;;;;;2.30;1.90;;;;;;;-145.79;40.22;77294.59;5263879;28;20021;-76
2023/04/30 16:50:15;;;;;;;3.70;2.00;;;;;;;-145.79;39.78;77281.91;5256215;28;20369;-76
2023/04/30 16:52:46;;;;;;;4.45;2.50;;;;;;;-145.79;39.47;77288.25;5244142;28;20029;-76
